OAS123 SKCL-KEWR
Flight info
| Callsign | OAS123 |
|---|---|
| Flight time | N/A |
| Altitude | 38000 |
| Route | KIKUM5A KIKUM UQ101 KILER UM779 TAKOD UL347 MLY/N0485F400 UT172 BEMOL UL417 NEFTU UR625 ENAMO/N0482F390 Y307 NUCAR AR3 CASPR Y307 CARPX AR3 GARIC Q107 ZORDO Q111 GEARS DCT HOUKY Q141 HYTRA PHLBO4 |
| Aircraft | B789/H-SDE1E2E3FGHIJ2J3J4J5M1RWXY/LB1D1 |
Departure
| Time | N/A |
|---|---|
| Airport | Alfonso Bonilla Aragon International Airport (SKCL) |
Arrival
| Time | 2026-05-03 20:22 |
|---|---|
| Airport | Newark Liberty International Airport (KEWR) |
| Time | Latitude | Longitude | Altitude | Speed | Heading |
|---|---|---|---|---|---|
| 2026-05-03 20:15 | 40.84642 | -74.31092 | 5698 ft | 247 kts | 89° |
| 2026-05-03 20:15 | 40.84552 | -74.28826 | 5443 ft | 247 kts | 89° |
| 2026-05-03 20:15 | 40.84461 | -74.26571 | 5180 ft | 245 kts | 89° |
| 2026-05-03 20:15 | 40.84370 | -74.24337 | 4930 ft | 242 kts | 89° |
| 2026-05-03 20:16 | 40.84282 | -74.22099 | 4674 ft | 246 kts | 89° |
| 2026-05-03 20:16 | 40.84192 | -74.19855 | 4403 ft | 243 kts | 89° |
| 2026-05-03 20:16 | 40.84100 | -74.17639 | 4155 ft | 242 kts | 89° |
| 2026-05-03 20:16 | 40.84013 | -74.15528 | 3942 ft | 236 kts | 89° |
| 2026-05-03 20:17 | 40.83923 | -74.13374 | 3723 ft | 227 kts | 89° |
| 2026-05-03 20:17 | 40.83839 | -74.11378 | 3619 ft | 214 kts | 89° |
| 2026-05-03 20:17 | 40.83706 | -74.09452 | 3479 ft | 206 kts | 98° |
| 2026-05-03 20:17 | 40.82969 | -74.07919 | 3240 ft | 200 kts | 141° |
| 2026-05-03 20:18 | 40.81738 | -74.07204 | 2989 ft | 192 kts | 179° |
| 2026-05-03 20:18 | 40.80421 | -74.07160 | 2813 ft | 188 kts | 186° |
| 2026-05-03 20:18 | 40.79112 | -74.07111 | 2563 ft | 190 kts | 185° |
| 2026-05-03 20:18 | 40.77803 | -74.07065 | 2303 ft | 186 kts | 185° |
| 2026-05-03 20:19 | 40.76524 | -74.07014 | 2080 ft | 179 kts | 186° |
| 2026-05-03 20:19 | 40.75395 | -74.07263 | 1778 ft | 155 kts | 216° |
| 2026-05-03 20:19 | 40.74498 | -74.07991 | 1637 ft | 155 kts | 218° |
| 2026-05-03 20:19 | 40.73512 | -74.08600 | 1442 ft | 156 kts | 214° |
| 2026-05-03 20:20 | 40.72537 | -74.09218 | 1238 ft | 155 kts | 216° |
| 2026-05-03 20:20 | 40.71560 | -74.09879 | 1030 ft | 166 kts | 217° |
| 2026-05-03 20:20 | 40.70624 | -74.10697 | 856 ft | 151 kts | 238° |
| 2026-05-03 20:20 | 40.70213 | -74.11877 | 730 ft | 138 kts | 261° |
| 2026-05-03 20:21 | 40.70093 | -74.13096 | 506 ft | 133 kts | 272° |
| 2026-05-03 20:21 | 40.70097 | -74.14288 | 300 ft | 126 kts | 274° |
| 2026-05-03 20:21 | 40.70127 | -74.15436 | 117 ft | 125 kts | 274° |
| 2026-05-03 20:21 | 40.70178 | -74.16476 | 27 ft | 89 kts | 274° |
| 2026-05-03 20:22 | 40.70201 | -74.16981 | 28 ft | 33 kts | 264° |
| 2026-05-03 20:22 | 40.70153 | -74.17203 | 28 ft | 11 kts | 246° |
| 2026-05-03 20:22 | 40.70124 | -74.17285 | 28 ft | 9 kts | 245° |
| 2026-05-03 20:22 | 40.70099 | -74.17340 | 27 ft | 6 kts | 224° |
| 2026-05-03 20:23 | 40.70065 | -74.17360 | 28 ft | 5 kts | 194° |
| 2026-05-03 20:23 | 40.70024 | -74.17369 | 28 ft | 7 kts | 187° |
| 2026-05-03 20:23 | 40.69973 | -74.17377 | 28 ft | 8 kts | 187° |
| 2026-05-03 20:23 | 40.69913 | -74.17385 | 28 ft | 9 kts | 185° |
| 2026-05-03 20:24 | 40.69859 | -74.17356 | 28 ft | 9 kts | 142° |
| 2026-05-03 20:24 | 40.69813 | -74.17297 | 28 ft | 10 kts | 135° |
| 2026-05-03 20:24 | 40.69760 | -74.17228 | 28 ft | 11 kts | 136° |
| 2026-05-03 20:24 | 40.69694 | -74.17163 | 28 ft | 13 kts | 150° |
| 2026-05-03 20:25 | 40.69610 | -74.17111 | 28 ft | 14 kts | 163° |
| 2026-05-03 20:25 | 40.69513 | -74.17076 | 27 ft | 15 kts | 167° |
| 2026-05-03 20:25 | 40.69411 | -74.17068 | 27 ft | 13 kts | 181° |
| 2026-05-03 20:25 | 40.69331 | -74.17089 | 27 ft | 10 kts | 199° |
| 2026-05-03 20:26 | 40.69276 | -74.17121 | 27 ft | 7 kts | 207° |
| 2026-05-03 20:26 | 40.69239 | -74.17144 | 27 ft | 5 kts | 206° |
| 2026-05-03 20:26 | 40.69206 | -74.17165 | 27 ft | 7 kts | 206° |
| 2026-05-03 20:26 | 40.69182 | -74.17204 | 27 ft | 5 kts | 257° |
| 2026-05-03 20:27 | 40.69183 | -74.17259 | 27 ft | 7 kts | 273° |
| 2026-05-03 20:27 | 40.69186 | -74.17309 | 27 ft | 3 kts | 275° |
| 2026-05-03 20:27 | 40.69186 | -74.17319 | 27 ft | 0 kts | 275° |
| 2026-05-03 20:27 | 40.69186 | -74.17321 | 27 ft | 0 kts | 275° |
| 2026-05-03 20:28 | 40.69186 | -74.17322 | 27 ft | 0 kts | 275° |